createdAt,value
2023-02-03T00:02:06.780Z,3.03
2023-02-03T00:04:33.610Z,2.80
2023-02-03T00:07:00.517Z,2.50
2023-02-03T00:09:27.477Z,2.30
2023-02-03T00:11:54.579Z,2.58
2023-02-03T00:14:21.452Z,2.25
2023-02-03T00:16:49.401Z,2.63
2023-02-03T00:19:17.624Z,2.50
2023-02-03T00:21:45.175Z,2.58
2023-02-03T00:24:12.110Z,2.72
2023-02-03T00:26:44.985Z,2.38
2023-02-03T00:29:12.048Z,2.33
2023-02-03T00:31:39.274Z,3.30
2023-02-03T00:34:06.620Z,2.53
2023-02-03T00:36:33.424Z,2.63
2023-02-03T00:39:01.301Z,2.40
2023-02-03T00:41:33.817Z,2.70
2023-02-03T00:44:00.598Z,2.38
2023-02-03T00:46:27.363Z,2.92
2023-02-03T00:48:54.245Z,2.42
2023-02-03T00:51:21.425Z,2.80
2023-02-03T00:53:49.305Z,2.30
2023-02-03T00:56:16.067Z,2.95
2023-02-03T00:58:44.297Z,2.40
2023-02-03T01:01:11.647Z,2.45
2023-02-03T01:03:39.062Z,2.60
2023-02-03T01:06:32.394Z,2.58
2023-02-03T01:08:59.214Z,2.65
2023-02-03T01:11:27.929Z,2.90
2023-02-03T01:13:59.222Z,2.10
2023-02-03T01:16:28.344Z,2.58
2023-02-03T01:18:56.821Z,2.30
2023-02-03T01:21:26.726Z,2.33
2023-02-03T01:23:54.667Z,2.40
2023-02-03T01:26:23.803Z,2.15
2023-02-03T01:28:59.104Z,2.67
2023-02-03T01:31:35.205Z,2.55
2023-02-03T01:34:03.037Z,2.60
2023-02-03T01:36:32.638Z,2.22
2023-02-03T01:39:00.027Z,2.28
2023-02-03T01:41:31.983Z,2.55
2023-02-03T01:44:01.596Z,2.10
2023-02-03T01:46:49.605Z,2.13
2023-02-03T01:49:31.002Z,2.33
2023-02-03T01:51:57.926Z,2.25
2023-02-03T01:54:37.485Z,2.35
2023-02-03T01:57:13.417Z,2.17
2023-02-03T01:59:40.693Z,2.40
2023-02-03T02:02:09.305Z,2.10
2023-02-03T02:04:54.994Z,2.35
2023-02-03T02:07:23.701Z,2.80
2023-02-03T02:09:51.543Z,2.10
2023-02-03T02:12:18.332Z,2.17
2023-02-03T02:14:47.576Z,2.92
2023-02-03T02:17:36.516Z,2.20
2023-02-03T02:20:37.318Z,1.80
2023-02-03T02:23:04.040Z,2.20
2023-02-03T02:25:52.015Z,2.25
2023-02-03T02:28:48.916Z,1.95
2023-02-03T02:31:47.784Z,1.77
2023-02-03T02:34:49.729Z,2.03
2023-02-03T02:37:30.940Z,1.50
2023-02-03T02:40:46.437Z,1.60
2023-02-03T02:43:25.062Z,1.45
2023-02-03T02:45:59.941Z,1.58
2023-02-03T02:48:41.858Z,1.50
2023-02-03T02:51:13.990Z,1.42
2023-02-03T02:53:50.302Z,1.25
2023-02-03T02:56:19.147Z,1.40
2023-02-03T02:58:51.137Z,1.00
2023-02-03T03:01:19.055Z,1.17
2023-02-03T03:03:46.317Z,1.27
2023-02-03T03:06:21.828Z,1.52
2023-02-03T03:08:57.317Z,1.38
2023-02-03T03:11:31.502Z,1.25
2023-02-03T03:14:02.019Z,1.40
2023-02-03T03:16:34.837Z,1.15
2023-02-03T03:19:15.517Z,1.20
2023-02-03T03:21:50.855Z,2.08
2023-02-03T03:24:27.146Z,1.40
2023-02-03T03:27:15.697Z,1.33
2023-02-03T03:29:58.192Z,1.30
2023-02-03T03:32:28.002Z,1.75
2023-02-03T03:34:56.513Z,1.48
2023-02-03T03:37:35.672Z,1.17
2023-02-03T03:40:13.892Z,1.25
2023-02-03T03:42:48.865Z,1.52
2023-02-03T03:45:42.386Z,1.20
2023-02-03T03:48:25.948Z,1.15
2023-02-03T03:51:01.141Z,1.63
2023-02-03T03:53:32.688Z,1.60
2023-02-03T03:56:04.630Z,1.20
2023-02-03T03:58:33.068Z,1.20
2023-02-03T04:01:06.886Z,1.10
2023-02-03T04:03:44.047Z,1.30
2023-02-03T04:06:11.737Z,1.30
2023-02-03T04:08:39.514Z,1.15
2023-02-03T04:11:06.899Z,1.27
2023-02-03T04:13:33.698Z,1.40
2023-02-03T04:16:00.536Z,0.98
2023-02-03T04:18:27.393Z,1.25
2023-02-03T04:20:54.279Z,1.20
2023-02-03T04:23:21.072Z,1.10
2023-02-03T04:25:47.849Z,1.15
2023-02-03T04:28:14.780Z,0.90
2023-02-03T04:30:41.738Z,1.30
2023-02-03T04:33:08.519Z,1.27
2023-02-03T04:35:35.296Z,1.20
2023-02-03T04:38:02.125Z,1.17
2023-02-03T04:40:29.170Z,1.10
2023-02-03T04:42:56.166Z,1.17
2023-02-03T04:45:22.956Z,1.30
2023-02-03T04:47:54.450Z,0.90
2023-02-03T04:50:21.533Z,1.33
2023-02-03T04:52:48.303Z,1.73
2023-02-03T04:55:15.144Z,1.38
2023-02-03T04:57:41.950Z,1.50
2023-02-03T05:00:09.912Z,1.38
2023-02-03T05:02:36.753Z,1.38
2023-02-03T05:05:03.737Z,1.42
2023-02-03T05:07:30.481Z,1.40
2023-02-03T05:09:57.290Z,1.40
2023-02-03T05:12:24.041Z,1.30
2023-02-03T05:14:50.805Z,1.70
2023-02-03T05:17:17.579Z,1.40
2023-02-03T05:19:44.378Z,1.60
2023-02-03T05:22:11.172Z,1.58
2023-02-03T05:24:38.030Z,1.58
2023-02-03T05:27:04.924Z,1.55
2023-02-03T05:29:31.670Z,1.20
2023-02-03T05:31:58.527Z,1.15
2023-02-03T05:34:25.327Z,1.40
2023-02-03T05:36:52.092Z,1.50
2023-02-03T05:39:18.958Z,1.17
2023-02-03T05:41:57.323Z,1.20
2023-02-03T05:44:29.448Z,1.27
2023-02-03T05:46:59.974Z,1.17
2023-02-03T05:49:26.939Z,1.30
2023-02-03T05:51:55.554Z,1.85
2023-02-03T05:54:22.831Z,1.65
2023-02-03T05:56:49.802Z,1.33
2023-02-03T05:59:16.585Z,1.80
2023-02-03T06:01:43.365Z,1.58
2023-02-03T06:04:10.505Z,2.00
2023-02-03T06:06:37.479Z,1.33
2023-02-03T06:09:07.551Z,1.50
2023-02-03T06:11:35.868Z,2.05
2023-02-03T06:14:04.132Z,1.65
2023-02-03T06:16:31.057Z,1.70
2023-02-03T06:19:01.957Z,1.30
2023-02-03T06:21:29.097Z,1.33
2023-02-03T06:23:56.514Z,1.75
2023-02-03T06:26:23.733Z,1.65
2023-02-03T06:28:50.507Z,1.58
2023-02-03T06:31:17.394Z,1.85
2023-02-03T06:33:44.230Z,1.95
2023-02-03T06:36:11.548Z,1.50
2023-02-03T06:38:38.293Z,1.92
2023-02-03T06:41:05.123Z,1.83
2023-02-03T06:43:31.929Z,1.45
2023-02-03T06:45:58.907Z,2.20
2023-02-03T06:48:25.729Z,1.85
2023-02-03T06:50:52.571Z,1.30
2023-02-03T06:53:19.326Z,1.80
2023-02-03T06:55:47.996Z,1.95
2023-02-03T06:58:15.368Z,1.65
2023-02-03T07:00:42.184Z,1.75
2023-02-03T07:03:09.077Z,1.75
2023-02-03T07:05:36.795Z,1.60
2023-02-03T07:08:03.686Z,2.17
2023-02-03T07:10:30.718Z,1.60
2023-02-03T07:13:04.199Z,1.67
2023-02-03T07:15:31.037Z,2.05
2023-02-03T07:17:57.837Z,1.80
2023-02-03T07:20:25.165Z,2.35
2023-02-03T07:22:56.749Z,1.92
2023-02-03T07:25:24.897Z,2.00
2023-02-03T07:27:51.932Z,1.70
2023-02-03T07:30:19.013Z,2.33
2023-02-03T07:32:51.161Z,2.40
2023-02-03T07:35:18.985Z,1.98
2023-02-03T07:37:45.905Z,2.33
2023-02-03T07:40:14.835Z,1.85
2023-02-03T07:42:47.711Z,2.15
2023-02-03T07:45:17.415Z,2.00
2023-02-03T07:47:44.601Z,2.00
2023-02-03T07:50:12.912Z,2.03
2023-02-03T07:52:40.390Z,2.92
2023-02-03T07:55:08.296Z,1.83
2023-02-03T07:57:35.355Z,2.03
2023-02-03T08:00:02.582Z,1.92
2023-02-03T08:02:39.015Z,2.17
2023-02-03T08:05:06.340Z,2.13
2023-02-03T08:07:33.374Z,1.83
2023-02-03T08:10:00.163Z,2.10
2023-02-03T08:12:27.014Z,1.83
2023-02-03T08:14:53.791Z,1.90
2023-02-03T08:17:20.802Z,1.95
2023-02-03T08:19:47.624Z,1.83
2023-02-03T08:22:16.526Z,1.98
2023-02-03T08:24:45.823Z,1.65
2023-02-03T08:27:19.068Z,2.25
2023-02-03T08:29:46.884Z,2.20
2023-02-03T08:32:17.633Z,1.60
2023-02-03T08:34:45.805Z,1.50
2023-02-03T08:37:16.225Z,1.95
2023-02-03T08:39:43.780Z,2.10
2023-02-03T08:42:11.044Z,1.90
2023-02-03T08:44:39.069Z,1.77
2023-02-03T08:47:07.169Z,1.90
2023-02-03T08:49:35.747Z,1.83
2023-02-03T08:52:02.611Z,3.10
2023-02-03T08:54:29.633Z,3.25
2023-02-03T08:56:56.652Z,1.73
2023-02-03T08:59:23.491Z,3.47
2023-02-03T09:01:50.417Z,4.43
2023-02-03T09:04:19.436Z,1.42
2023-02-03T09:06:49.772Z,1.88
2023-02-03T09:09:16.731Z,1.90
2023-02-03T09:11:43.829Z,1.90
2023-02-03T09:14:11.217Z,2.75
2023-02-03T09:16:38.874Z,1.70
2023-02-03T09:19:06.038Z,1.85
2023-02-03T09:21:34.671Z,1.90
2023-02-03T09:24:13.434Z,1.90
2023-02-03T09:26:40.241Z,2.55
2023-02-03T09:29:07.723Z,2.08
2023-02-03T09:31:34.675Z,1.75
2023-02-03T09:34:01.588Z,1.80
2023-02-03T09:36:28.386Z,2.40
2023-02-03T09:38:57.643Z,1.60
2023-02-03T09:42:01.335Z,1.77
2023-02-03T09:44:39.047Z,1.50
2023-02-03T09:47:22.664Z,1.58
2023-02-03T09:49:59.010Z,1.92
2023-02-03T09:52:34.315Z,2.15
2023-02-03T09:55:05.506Z,1.60
2023-02-03T09:57:48.043Z,1.65
2023-02-03T10:00:23.262Z,1.60
2023-02-03T10:02:58.638Z,1.70
2023-02-03T10:06:05.481Z,1.67
2023-02-03T10:09:03.424Z,1.50
2023-02-03T10:12:01.061Z,1.50
2023-02-03T10:15:02.887Z,2.30
2023-02-03T10:17:46.193Z,1.80
2023-02-03T10:20:39.903Z,1.50
2023-02-03T10:23:22.509Z,1.60
2023-02-03T10:25:57.665Z,1.60
2023-02-03T10:28:43.958Z,1.83
2023-02-03T10:31:27.576Z,1.70
2023-02-03T10:34:13.933Z,1.70
2023-02-03T10:36:56.958Z,1.38
2023-02-03T10:39:42.979Z,2.05
2023-02-03T10:42:13.169Z,1.67
2023-02-03T10:44:44.641Z,2.42
2023-02-03T10:47:42.573Z,1.80
2023-02-03T10:50:20.378Z,1.70
2023-02-03T10:52:47.789Z,1.90
2023-02-03T10:55:26.643Z,2.17
2023-02-03T10:57:55.039Z,1.73
2023-02-03T11:00:34.494Z,1.52
2023-02-03T11:03:28.602Z,1.75
2023-02-03T11:06:05.066Z,1.70
2023-02-03T11:08:34.373Z,1.67
2023-02-03T11:11:14.207Z,2.30
2023-02-03T11:13:41.214Z,1.77
2023-02-03T11:16:16.894Z,2.22
2023-02-03T11:19:02.776Z,1.58
2023-02-03T11:21:38.704Z,1.60
2023-02-03T11:24:17.879Z,2.92
2023-02-03T11:26:55.871Z,1.98
2023-02-03T11:29:31.363Z,1.60
2023-02-03T11:32:05.920Z,1.75
2023-02-03T11:34:42.817Z,4.97
2023-02-03T11:37:34.783Z,2.00
2023-02-03T11:40:07.428Z,1.38
2023-02-03T11:42:37.496Z,2.03
2023-02-03T11:45:41.784Z,2.15
2023-02-03T11:48:23.890Z,1.63
2023-02-03T11:51:18.352Z,1.90
2023-02-03T11:54:00.280Z,2.05
2023-02-03T11:57:07.699Z,2.22
2023-02-03T12:00:03.865Z,2.08
2023-02-03T12:03:18.467Z,1.63
2023-02-03T12:06:08.071Z,2.03
2023-02-03T12:09:07.320Z,2.08
2023-02-03T12:12:14.972Z,2.42
2023-02-03T12:15:27.048Z,1.60
2023-02-03T12:19:10.167Z,2.15
2023-02-03T12:22:09.971Z,1.60
2023-02-03T12:24:57.462Z,2.97
2023-02-03T12:27:52.314Z,2.30
2023-02-03T12:30:30.871Z,1.95
2023-02-03T12:33:05.803Z,2.10
2023-02-03T12:35:56.192Z,1.73
2023-02-03T12:38:34.144Z,2.03
2023-02-03T12:41:11.957Z,1.98
2023-02-03T12:43:42.676Z,2.20
2023-02-03T12:46:20.756Z,2.30
2023-02-03T12:49:26.096Z,2.00
2023-02-03T12:52:03.004Z,2.35
2023-02-03T12:54:52.773Z,2.80
2023-02-03T12:57:41.516Z,2.15
2023-02-03T13:00:51.815Z,2.25
2023-02-03T13:03:45.200Z,2.25
2023-02-03T13:07:11.641Z,2.13
2023-02-03T13:10:27.035Z,2.42
2023-02-03T13:12:58.271Z,2.50
2023-02-03T13:15:44.735Z,2.40
2023-02-03T13:18:31.440Z,2.33
2023-02-03T13:20:58.388Z,2.33
2023-02-03T13:23:26.629Z,2.22
2023-02-03T13:26:17.838Z,2.22
2023-02-03T13:28:58.603Z,2.72
2023-02-03T13:31:37.297Z,2.55
2023-02-03T13:34:41.647Z,2.78
2023-02-03T13:37:48.180Z,2.45
2023-02-03T13:40:53.351Z,2.03
2023-02-03T13:43:38.325Z,2.58
2023-02-03T13:46:10.900Z,2.45
2023-02-03T13:48:38.036Z,2.33
2023-02-03T13:51:17.013Z,3.10
2023-02-03T13:53:47.349Z,2.17
2023-02-03T13:56:33.376Z,2.50
2023-02-03T13:59:13.429Z,2.53
2023-02-03T14:01:44.481Z,2.85
2023-02-03T14:04:26.247Z,2.83
2023-02-03T14:06:53.086Z,3.30
2023-02-03T14:09:30.714Z,2.90
2023-02-03T14:12:18.099Z,3.15
2023-02-03T14:15:04.383Z,2.15
2023-02-03T14:17:34.279Z,2.30
2023-02-03T14:20:27.342Z,2.30
2023-02-03T14:23:05.744Z,2.97
2023-02-03T14:25:58.372Z,2.55
2023-02-03T14:28:42.675Z,3.10
2023-02-03T14:31:17.329Z,3.13
2023-02-03T14:34:05.733Z,3.00
2023-02-03T14:36:51.667Z,3.03
2023-02-03T14:39:18.606Z,4.80
2023-02-03T14:41:45.284Z,3.70
2023-02-03T14:44:37.326Z,3.67
2023-02-03T14:47:35.792Z,4.07
2023-02-03T14:50:32.246Z,3.60
2023-02-03T14:52:59.039Z,3.70
2023-02-03T14:55:37.802Z,3.30
2023-02-03T14:58:20.824Z,3.47
2023-02-03T15:00:49.000Z,3.30
2023-02-03T15:03:22.394Z,3.22
2023-02-03T15:06:03.206Z,3.65
2023-02-03T15:08:44.238Z,3.75
2023-02-03T15:11:43.516Z,4.43
2023-02-03T15:14:24.076Z,3.55
2023-02-03T15:17:11.165Z,3.75
2023-02-03T15:19:42.854Z,3.85
2023-02-03T15:22:26.295Z,2.92
2023-02-03T15:24:59.637Z,2.90
2023-02-03T15:27:30.602Z,2.90
2023-02-03T15:30:01.098Z,3.80
2023-02-03T15:32:40.096Z,4.85
2023-02-03T15:35:16.727Z,3.47
2023-02-03T15:37:54.310Z,4.78
2023-02-03T15:40:27.726Z,6.03
2023-02-03T15:43:07.885Z,4.93
2023-02-03T15:45:45.991Z,4.55
2023-02-03T15:48:16.505Z,4.82
2023-02-03T15:51:17.701Z,4.05
2023-02-03T15:54:02.429Z,4.70
2023-02-03T15:56:37.772Z,6.93
2023-02-03T15:59:18.483Z,7.93
2023-02-03T16:01:45.457Z,3.72
2023-02-03T16:04:14.436Z,3.35
2023-02-03T16:06:47.567Z,3.70
2023-02-03T16:09:39.486Z,3.20
2023-02-03T16:12:31.448Z,3.42
2023-02-03T16:15:00.506Z,4.35
2023-02-03T16:17:39.363Z,6.93
2023-02-03T16:20:12.353Z,5.22
2023-02-03T16:23:00.764Z,6.95
2023-02-03T16:25:31.981Z,7.93
2023-02-03T16:28:27.402Z,4.57
2023-02-03T16:31:21.291Z,6.97
2023-02-03T16:34:09.226Z,5.45
2023-02-03T16:37:02.156Z,5.15
2023-02-03T16:39:47.828Z,3.55
2023-02-03T16:42:40.011Z,3.25
2023-02-03T16:45:36.933Z,4.35
2023-02-03T16:48:23.366Z,3.88
2023-02-03T16:50:53.952Z,4.05
2023-02-03T16:53:30.691Z,3.60
2023-02-03T16:56:02.013Z,4.65
2023-02-03T16:58:28.933Z,4.03
2023-02-03T17:01:00.261Z,4.00
2023-02-03T17:03:29.003Z,3.72
2023-02-03T17:05:57.295Z,3.45
2023-02-03T17:08:26.228Z,3.60
2023-02-03T17:10:53.561Z,3.40
2023-02-03T17:13:23.042Z,3.88
2023-02-03T17:15:55.269Z,4.47
2023-02-03T17:18:22.701Z,5.50
2023-02-03T17:20:50.300Z,4.00
2023-02-03T17:23:17.433Z,3.72
2023-02-03T17:25:48.597Z,4.18
2023-02-03T17:28:16.069Z,3.72
2023-02-03T17:30:43.377Z,3.78
2023-02-03T17:33:14.303Z,3.22
2023-02-03T17:35:43.571Z,3.70
2023-02-03T17:38:13.073Z,3.80
2023-02-03T17:54:35.885Z,4.00
2023-02-03T17:57:03.373Z,3.40
2023-02-03T17:59:30.281Z,3.35
2023-02-03T18:01:57.192Z,3.58
2023-02-03T18:04:24.120Z,3.15
2023-02-03T18:06:51.098Z,3.22
2023-02-03T18:09:18.213Z,3.22
2023-02-03T18:11:45.926Z,3.53
2023-02-03T18:14:14.973Z,3.63
2023-02-03T18:16:43.737Z,3.70
2023-02-03T18:19:14.804Z,3.83
2023-02-03T18:21:43.399Z,4.63
2023-02-03T18:24:13.611Z,4.28
2023-02-03T18:26:52.118Z,3.80
2023-02-03T18:29:19.806Z,4.20
2023-02-03T18:31:48.288Z,5.22
2023-02-03T18:34:16.654Z,5.45
2023-02-03T18:36:44.001Z,4.13
2023-02-03T18:39:12.684Z,3.55
2023-02-03T18:41:40.012Z,4.07
2023-02-03T18:44:06.915Z,3.53
2023-02-03T18:46:34.312Z,4.28
2023-02-03T18:49:01.473Z,3.92
2023-02-03T18:51:28.636Z,3.85
2023-02-03T18:53:59.746Z,4.20
2023-02-03T18:56:35.372Z,3.88
2023-02-03T18:59:09.752Z,4.10
2023-02-03T19:01:38.994Z,3.75
2023-02-03T19:04:06.313Z,4.25
2023-02-03T19:06:35.737Z,3.47
2023-02-03T19:09:05.371Z,4.68
2023-02-03T19:11:33.696Z,4.72
2023-02-03T19:14:00.639Z,3.80
2023-02-03T19:16:27.511Z,5.68
2023-02-03T19:18:54.430Z,3.42
2023-02-03T19:21:21.287Z,4.10
2023-02-03T19:23:48.394Z,3.67
2023-02-03T19:26:15.182Z,4.50
2023-02-03T19:28:42.098Z,3.40
2023-02-03T19:31:15.075Z,3.70
2023-02-03T19:33:42.448Z,3.58
2023-02-03T19:36:11.073Z,3.58
2023-02-03T19:38:37.978Z,4.05
2023-02-03T19:41:05.240Z,4.30
2023-02-03T19:43:32.384Z,4.53
2023-02-03T19:45:59.588Z,3.58
2023-02-03T19:48:26.534Z,3.45
2023-02-03T19:50:53.381Z,3.08
2023-02-03T19:53:21.530Z,3.67
2023-02-03T19:55:48.528Z,3.97
2023-02-03T19:58:15.737Z,4.10
2023-02-03T20:00:43.231Z,3.92
2023-02-03T20:03:10.999Z,4.50
2023-02-03T20:05:38.076Z,3.78
2023-02-03T20:08:05.687Z,3.72
2023-02-03T20:10:33.351Z,3.60
2023-02-03T20:13:00.952Z,3.95
2023-02-03T20:15:28.154Z,4.13
2023-02-03T20:17:54.964Z,4.20
2023-02-03T20:20:22.247Z,5.10
2023-02-03T20:22:49.532Z,3.58
2023-02-03T20:25:17.197Z,4.07
2023-02-03T20:27:44.022Z,4.63
2023-02-03T20:30:12.569Z,3.60
2023-02-03T20:32:39.585Z,4.93
2023-02-03T20:35:07.073Z,4.20
2023-02-03T20:37:36.019Z,4.78
2023-02-03T20:40:12.179Z,4.63
2023-02-03T20:42:39.101Z,3.97
2023-02-03T20:45:17.409Z,4.68
2023-02-03T20:47:44.693Z,4.15
2023-02-03T20:50:19.853Z,4.45
2023-02-03T20:52:52.561Z,5.00
2023-02-03T20:55:22.840Z,4.68
2023-02-03T20:57:54.089Z,4.40
2023-02-03T21:00:25.308Z,4.90
2023-02-03T21:03:16.251Z,6.28
2023-02-03T21:05:46.845Z,6.60
2023-02-03T21:08:18.670Z,8.57
2023-02-03T21:10:47.820Z,5.05
2023-02-03T21:13:23.640Z,4.53
2023-02-03T21:16:04.680Z,5.70
2023-02-03T21:18:56.552Z,4.35
2023-02-03T21:21:39.402Z,5.18
2023-02-03T21:24:27.832Z,7.05
2023-02-03T21:26:55.045Z,7.28
2023-02-03T21:29:47.890Z,5.03
2023-02-03T21:32:14.765Z,3.80
2023-02-03T21:34:46.386Z,2.80
2023-02-03T21:37:38.657Z,3.33
2023-02-03T21:40:24.057Z,3.95
2023-02-03T21:42:51.905Z,3.22
2023-02-03T21:45:21.533Z,3.05
2023-02-03T21:47:52.582Z,2.63
2023-02-03T21:50:27.174Z,3.13
2023-02-03T21:52:54.365Z,2.72
2023-02-03T21:55:21.570Z,3.15
2023-02-03T21:57:49.281Z,2.60
2023-02-03T22:00:43.108Z,2.30
2023-02-03T22:03:22.942Z,2.25
2023-02-03T22:05:50.214Z,2.38
2023-02-03T22:08:22.517Z,2.42
2023-02-03T22:10:50.062Z,2.70
2023-02-03T22:13:17.010Z,2.58
2023-02-03T22:15:45.905Z,2.35
2023-02-03T22:18:12.652Z,2.45
2023-02-03T22:20:39.458Z,2.58
2023-02-03T22:23:06.413Z,2.83
2023-02-03T22:25:33.349Z,2.53
2023-02-03T22:28:00.227Z,2.53
2023-02-03T22:30:27.320Z,2.60
2023-02-03T22:32:54.181Z,2.70
2023-02-03T22:35:20.978Z,2.63
2023-02-03T22:37:47.847Z,3.22
2023-02-03T22:40:14.706Z,2.78
2023-02-03T22:42:41.505Z,2.72
2023-02-03T22:45:09.232Z,2.83
2023-02-03T22:47:36.094Z,2.80
2023-02-03T22:50:05.249Z,2.95
2023-02-03T22:52:32.776Z,2.90
2023-02-03T22:54:59.562Z,3.10
2023-02-03T22:57:26.439Z,2.83
2023-02-03T22:59:53.194Z,2.63
2023-02-03T23:02:19.988Z,2.58
2023-02-03T23:04:46.877Z,2.83
2023-02-03T23:07:14.036Z,2.70
2023-02-03T23:09:40.788Z,3.00
2023-02-03T23:12:08.112Z,3.33
2023-02-03T23:14:34.962Z,3.63
2023-02-03T23:17:02.188Z,3.65
2023-02-03T23:19:29.170Z,3.25
2023-02-03T23:21:55.915Z,3.08
2023-02-03T23:24:22.704Z,3.58
2023-02-03T23:26:49.644Z,3.42
2023-02-03T23:29:16.506Z,3.50
2023-02-03T23:31:43.339Z,3.33
2023-02-03T23:34:28.633Z,3.25
2023-02-03T23:36:55.418Z,3.55
2023-02-03T23:39:22.261Z,3.42
2023-02-03T23:41:49.071Z,2.85
2023-02-03T23:44:15.928Z,2.75
2023-02-03T23:46:42.878Z,3.75
2023-02-03T23:49:09.915Z,3.47
2023-02-03T23:51:36.761Z,3.30
2023-02-03T23:54:03.980Z,3.85
2023-02-03T23:56:30.822Z,3.05
2023-02-03T23:58:57.648Z,4.15
